YLVT weather

CLOSED RAAF Williams, Laverton Base
Laverton, Victoria, Australia

Public forecast

Using degrees Celsius for public forecast. Weather courtesy of forecast.io.

Closest aviation weather report (METAR) to RAAF Williams, Laverton Base

Closest report is Melbourne Essendon Airport, 11.0 nm (20.4 km) NE. Retrieved 2019/10/16 10:00 UTC (48 minutes ago):

YMEN 161000Z AUTO 14006KT 9999 // SCT016 BKN029 BKN037 13/11 Q1009

Closest aviation forecast (TAF) to RAAF Williams, Laverton Base

Forecast is more than 6 hours old.

Closest forecast is Melbourne International Airport, 12.3 nm (22.8 km) NNE. Retrieved 2019-10-16 00:00 UTC (11 hours ago):

TAF YMML 152313Z 1600/1706 36006KT 9999 -RA FEW035 BKN060 FM160700 20008KT 9999 SHRA SCT010 SCT025 BKN040 FM161300 33008KT 9999 -SHRA SCT040 FM161700 30012KT 9999 -SHRA SCT030 BKN040 FM162200 28015G25KT 9999 -SHRA SCT025 BKN040 FM170100 26018G32KT 9999 -SHRA SCT030 BKN045 INTER 1600/1615 4000 RA SCT015 TEMPO 1606/1612 3000 +SHRA BKN006 INTER 1700/1706 3000 SHRAGS BKN012 PROB30 INTER 1615/1618 29018G35KT 2000 TSRA BKN005 SCT030CB